createdAt,value
2019-04-14T00:00:27.835Z,94024.39
2019-04-14T00:02:58.077Z,94025.50
2019-04-14T00:05:28.206Z,94017.87
2019-04-14T00:07:58.097Z,94014.45
2019-04-14T00:10:26.919Z,94011.39
2019-04-14T00:12:55.730Z,94010.53
2019-04-14T00:15:30.978Z,94001.52
2019-04-14T00:17:54.726Z,94008.69
2019-04-14T00:20:23.389Z,93998.31
2019-04-14T00:22:53.207Z,93993.48
2019-04-14T00:25:22.103Z,93987.69
2019-04-14T00:27:50.792Z,93988.41
2019-04-14T00:30:21.033Z,93986.42
2019-04-14T00:32:55.193Z,93985.42
2019-04-14T00:35:38.564Z,93984.20
2019-04-14T00:38:08.937Z,93984.42
2019-04-14T00:40:43.189Z,93982.99
2019-04-14T00:43:13.567Z,93976.20
2019-04-14T00:45:50.744Z,93970.00
2019-04-14T00:48:18.962Z,93969.77
2019-04-14T00:50:47.311Z,93975.41
2019-04-14T00:53:16.356Z,93972.13
2019-04-14T00:55:44.355Z,93973.98
2019-04-14T00:58:12.998Z,93972.50
2019-04-14T01:00:42.996Z,93977.47
2019-04-14T01:03:11.840Z,93968.62
2019-04-14T01:05:41.544Z,93972.59
2019-04-14T01:08:10.220Z,93973.06
2019-04-14T01:10:39.177Z,93963.96
2019-04-14T01:13:10.756Z,93965.82
2019-04-14T01:15:49.088Z,93957.68
2019-04-14T01:18:09.973Z,93958.77
2019-04-14T01:20:38.839Z,93962.56
2019-04-14T01:23:08.448Z,93962.97
2019-04-14T01:25:37.438Z,93967.41
2019-04-14T01:28:06.787Z,93966.04
2019-04-14T01:30:35.766Z,93960.48
2019-04-14T01:33:05.471Z,93966.63
2019-04-14T01:35:35.653Z,93969.84
2019-04-14T01:38:05.800Z,93965.14
2019-04-14T01:40:35.864Z,93971.59
2019-04-14T01:43:05.855Z,93965.69
2019-04-14T01:45:35.907Z,93962.25
2019-04-14T01:48:05.893Z,93965.20
2019-04-14T01:50:52.311Z,93969.40
2019-04-14T01:53:40.076Z,93958.76
2019-04-14T01:56:10.368Z,93964.54
2019-04-14T01:58:40.694Z,93966.17
2019-04-14T02:01:14.932Z,93966.14
2019-04-14T02:03:43.738Z,93962.33
2019-04-14T02:06:13.529Z,93966.05
2019-04-14T02:08:43.639Z,93963.83
2019-04-14T02:11:13.618Z,93964.92
2019-04-14T02:13:42.410Z,93957.19
2019-04-14T02:16:22.988Z,93957.59
2019-04-14T02:18:42.725Z,93959.31
2019-04-14T02:21:12.737Z,93961.80
2019-04-14T02:23:43.219Z,93956.87
2019-04-14T02:26:13.181Z,93962.52
2019-04-14T02:28:42.252Z,93955.87
2019-04-14T02:31:24.665Z,93953.78
2019-04-14T02:34:09.049Z,93954.88
2019-04-14T02:36:40.277Z,93948.83
2019-04-14T02:39:13.918Z,93945.42
2019-04-14T02:41:49.333Z,93950.71
2019-04-14T02:44:15.759Z,93948.23
2019-04-14T02:46:47.845Z,93944.02
2019-04-14T02:49:29.543Z,93948.23
2019-04-14T02:51:42.506Z,93948.09
2019-04-14T02:54:14.264Z,93946.51
2019-04-14T02:56:45.399Z,93947.00
2019-04-14T03:04:16.915Z,93957.59
2019-04-14T03:06:41.430Z,93908.45
2019-04-14T03:09:32.741Z,93962.03
2019-04-14T03:11:48.962Z,93952.66
2019-04-14T03:14:19.649Z,93924.45
2019-04-14T03:17:11.166Z,93957.96
2019-04-14T03:19:43.950Z,93955.77
2019-04-14T03:22:19.939Z,93962.43
2019-04-14T03:24:39.138Z,93965.51
2019-04-14T03:27:25.097Z,93958.23
2019-04-14T03:29:55.315Z,93962.29
2019-04-14T03:32:42.592Z,93967.31
2019-04-14T03:35:05.460Z,93968.67
2019-04-14T03:42:31.781Z,93964.73
2019-04-14T03:44:48.598Z,93963.74
2019-04-14T03:47:25.728Z,93968.18
2019-04-14T03:49:56.385Z,93968.39
2019-04-14T03:52:33.239Z,93965.69
2019-04-14T03:54:45.564Z,93968.04
2019-04-14T03:56:59.848Z,93971.84
2019-04-14T03:59:28.620Z,93969.16
2019-04-14T04:01:58.507Z,93970.98
2019-04-14T04:04:27.716Z,93971.25
2019-04-14T04:06:57.463Z,93977.89
2019-04-14T04:09:34.354Z,93975.45
2019-04-14T04:12:03.202Z,93980.02
2019-04-14T04:14:31.839Z,93978.31
2019-04-14T04:17:02.050Z,93988.58
2019-04-14T04:19:44.786Z,93988.20
2019-04-14T04:22:31.201Z,93992.36
2019-04-14T04:25:05.313Z,93984.38
2019-04-14T04:27:52.624Z,93989.21
2019-04-14T04:30:23.138Z,93982.33
2019-04-14T04:32:53.686Z,93982.66
2019-04-14T04:35:32.887Z,93984.31
2019-04-14T04:38:18.401Z,93993.81
2019-04-14T04:40:47.111Z,93989.24
2019-04-14T04:43:16.840Z,93994.80
2019-04-14T04:45:45.823Z,93990.10
2019-04-14T04:48:15.205Z,94000.10
2019-04-14T04:50:45.252Z,93993.28
2019-04-14T04:53:14.395Z,94007.70
2019-04-14T04:55:43.871Z,94006.25
2019-04-14T04:58:12.683Z,94004.94
2019-04-14T05:00:41.673Z,94003.11
2019-04-14T05:03:10.783Z,93999.94
2019-04-14T05:06:15.397Z,93992.42
2019-04-14T05:08:45.699Z,93998.69
2019-04-14T05:11:16.539Z,93995.11
2019-04-14T05:13:46.889Z,93995.24
2019-04-14T05:16:15.555Z,93998.34
2019-04-14T05:18:44.254Z,93993.02
2019-04-14T05:21:12.937Z,93998.48
2019-04-14T05:23:41.639Z,93998.71
2019-04-14T05:26:11.295Z,94001.05
2019-04-14T05:28:40.060Z,94010.20
2019-04-14T05:31:09.792Z,94005.98
2019-04-14T05:33:38.725Z,94006.75
2019-04-14T05:36:08.573Z,94001.94
2019-04-14T05:38:38.529Z,93997.62
2019-04-14T05:41:07.426Z,94002.33
2019-04-14T05:43:44.707Z,94007.46
2019-04-14T05:46:07.648Z,94005.16
2019-04-14T05:48:36.430Z,94005.28
2019-04-14T05:51:06.283Z,94005.70
2019-04-14T05:53:35.318Z,94006.75
2019-04-14T05:56:05.787Z,94002.69
2019-04-14T05:58:36.534Z,94012.23
2019-04-14T06:01:05.267Z,94010.87
2019-04-14T06:03:34.295Z,94005.73
2019-04-14T06:06:02.957Z,94014.08
2019-04-14T06:08:31.672Z,94004.48
2019-04-14T06:11:00.462Z,94011.35
2019-04-14T06:13:29.172Z,94009.89
2019-04-14T06:15:57.874Z,94005.81
2019-04-14T06:18:26.622Z,94008.53
2019-04-14T06:20:55.329Z,94007.53
2019-04-14T06:23:24.066Z,94009.06
2019-04-14T06:25:52.795Z,94009.78
2019-04-14T06:28:21.576Z,94013.98
2019-04-14T06:30:57.985Z,94013.77
2019-04-14T06:33:28.269Z,94017.50
2019-04-14T06:36:14.827Z,94012.23
2019-04-14T06:38:48.119Z,94017.34
2019-04-14T06:41:18.555Z,94020.11
2019-04-14T06:43:49.155Z,94017.98
2019-04-14T06:46:17.575Z,94023.88
2019-04-14T06:48:46.244Z,94022.97
2019-04-14T06:51:15.089Z,94022.61
2019-04-14T06:53:43.745Z,94003.86
2019-04-14T06:56:12.436Z,94029.23
2019-04-14T06:58:41.107Z,94025.27
2019-04-14T07:01:09.794Z,94030.84
2019-04-14T07:03:38.465Z,94031.16
2019-04-14T07:06:07.162Z,94033.53
2019-04-14T07:08:35.835Z,94021.56
2019-04-14T07:11:04.522Z,94036.13
2019-04-14T07:13:33.194Z,94015.66
2019-04-14T07:16:01.892Z,94035.42
2019-04-14T07:18:30.553Z,94035.95
2019-04-14T07:20:59.227Z,94042.62
2019-04-14T07:23:27.904Z,94040.31
2019-04-14T07:25:56.598Z,94036.64
2019-04-14T07:28:25.255Z,94036.14
2019-04-14T07:31:01.687Z,94033.38
2019-04-14T07:33:34.179Z,94003.03
2019-04-14T07:36:20.921Z,94034.09
2019-04-14T07:38:53.843Z,94038.98
2019-04-14T07:41:27.107Z,94039.73
2019-04-14T07:44:15.620Z,94039.63
2019-04-14T07:46:48.980Z,94043.00
2019-04-14T07:49:28.488Z,94037.95
2019-04-14T07:52:15.108Z,94042.11
2019-04-14T07:54:45.398Z,94040.45
2019-04-14T07:57:15.683Z,94038.11
2019-04-14T07:59:52.236Z,94037.11
2019-04-14T08:02:28.575Z,94038.33
2019-04-14T08:04:58.850Z,94033.09
2019-04-14T08:07:28.466Z,94023.97
2019-04-14T08:09:57.182Z,94023.97
2019-04-14T08:12:25.897Z,94033.09
2019-04-14T08:14:54.580Z,94025.59
2019-04-14T08:17:23.325Z,94029.41
2019-04-14T08:19:52.047Z,94019.39
2019-04-14T08:22:20.733Z,94028.33
2019-04-14T08:24:49.475Z,94021.56
2019-04-14T08:27:18.289Z,94019.36
2019-04-14T08:29:46.986Z,94021.14
2019-04-14T08:32:15.760Z,94017.64
2019-04-14T08:34:44.445Z,94015.52
2019-04-14T08:37:13.125Z,94010.34
2019-04-14T08:39:41.930Z,94009.93
2019-04-14T08:42:18.391Z,94009.93
2019-04-14T08:44:48.627Z,94005.16
2019-04-14T08:47:37.264Z,94004.21
2019-04-14T08:50:09.035Z,94000.25
2019-04-14T08:52:42.074Z,93995.44
2019-04-14T08:55:28.565Z,93996.17
2019-04-14T08:57:58.804Z,93991.95
2019-04-14T09:00:35.063Z,93991.04
2019-04-14T09:03:14.341Z,93991.00
2019-04-14T09:05:59.523Z,93992.55
2019-04-14T09:08:32.613Z,93989.50
2019-04-14T09:11:05.879Z,93986.70
2019-04-14T09:13:35.354Z,93980.33
2019-04-14T09:16:04.076Z,93985.62
2019-04-14T09:18:32.739Z,93988.34
2019-04-14T09:21:01.429Z,93984.59
2019-04-14T09:23:30.109Z,93962.00
2019-04-14T09:25:58.800Z,93987.54
2019-04-14T09:28:27.483Z,93974.81
2019-04-14T09:30:56.152Z,93990.41
2019-04-14T09:33:24.841Z,93992.91
2019-04-14T09:35:53.510Z,93972.37
2019-04-14T09:38:22.189Z,93991.38
2019-04-14T09:40:50.912Z,93993.52
2019-04-14T09:43:19.635Z,93991.58
2019-04-14T09:45:48.312Z,94002.56
2019-04-14T09:48:17.123Z,93998.83
2019-04-14T09:50:45.792Z,93992.97
2019-04-14T09:53:14.462Z,93992.16
2019-04-14T09:55:43.202Z,93985.19
2019-04-14T09:58:11.898Z,93987.36
2019-04-14T10:00:41.074Z,93982.53
2019-04-14T10:03:10.384Z,93988.02
2019-04-14T10:05:39.063Z,93987.87
2019-04-14T10:08:07.750Z,93979.98
2019-04-14T10:10:36.505Z,93984.61
2019-04-14T10:13:05.159Z,93979.94
2019-04-14T10:15:33.839Z,93980.27
2019-04-14T10:18:02.538Z,93983.53
2019-04-14T10:20:31.198Z,93980.81
2019-04-14T10:22:59.867Z,93978.57
2019-04-14T10:25:28.577Z,93982.23
2019-04-14T10:27:57.249Z,93978.06
2019-04-14T10:30:25.929Z,93975.63
2019-04-14T10:32:57.201Z,93968.84
2019-04-14T10:35:25.870Z,93969.60
2019-04-14T10:37:54.592Z,93972.98
2019-04-14T10:40:23.257Z,93973.74
2019-04-14T10:42:51.930Z,93979.50
2019-04-14T10:45:20.609Z,93866.44
2019-04-14T10:47:49.406Z,93981.19
2019-04-14T10:50:30.199Z,93968.56
2019-04-14T10:52:48.496Z,93972.31
2019-04-14T10:55:17.177Z,93974.78
2019-04-14T10:57:45.893Z,93963.48
2019-04-14T11:00:16.169Z,93976.19
2019-04-14T11:02:44.861Z,93977.41
2019-04-14T11:05:13.615Z,93971.32
2019-04-14T11:07:42.298Z,93979.19
2019-04-14T11:10:11.871Z,93979.66
2019-04-14T11:12:40.551Z,93971.59
2019-04-14T11:15:10.542Z,93965.86
2019-04-14T11:17:39.260Z,93975.45
2019-04-14T11:20:09.146Z,93976.14
2019-04-14T11:22:37.802Z,93975.78
2019-04-14T11:25:07.981Z,93978.89
2019-04-14T11:27:36.653Z,93977.30
2019-04-14T11:30:08.816Z,93987.49
2019-04-14T11:32:45.035Z,93982.11
2019-04-14T11:35:16.615Z,93977.73
2019-04-14T11:38:03.416Z,93976.98
2019-04-14T11:40:50.047Z,93978.52
2019-04-14T11:43:18.728Z,93979.73
2019-04-14T11:45:47.409Z,93969.50
2019-04-14T11:48:16.087Z,93969.98
2019-04-14T11:50:44.769Z,93969.86
2019-04-14T11:53:13.431Z,93974.49
2019-04-14T11:55:42.270Z,93976.39
2019-04-14T11:58:10.941Z,93964.50
2019-04-14T12:00:59.192Z,93969.19
2019-04-14T12:03:45.624Z,93967.27
2019-04-14T12:06:31.001Z,93964.47
2019-04-14T12:09:01.246Z,93966.69
2019-04-14T12:11:29.935Z,93960.21
2019-04-14T12:13:58.611Z,93959.88
2019-04-14T12:16:27.308Z,93958.24
2019-04-14T12:18:56.166Z,93957.80
2019-04-14T12:21:24.919Z,93955.80
2019-04-14T12:23:53.570Z,93954.31
2019-04-14T12:26:22.251Z,93950.84
2019-04-14T12:28:51.572Z,93947.53
2019-04-14T12:31:20.286Z,93950.36
2019-04-14T12:33:48.966Z,93946.61
2019-04-14T12:36:17.613Z,93941.57
2019-04-14T12:38:46.283Z,93938.50
2019-04-14T12:41:17.697Z,93930.06
2019-04-14T12:43:48.057Z,93938.75
2019-04-14T12:46:21.076Z,93926.22
2019-04-14T12:48:54.030Z,93922.73
2019-04-14T12:51:27.076Z,93923.67
2019-04-14T12:53:55.761Z,93907.39
2019-04-14T12:56:26.011Z,93928.36
2019-04-14T12:58:56.275Z,93922.74
2019-04-14T13:01:26.546Z,93919.54
2019-04-14T13:03:55.194Z,93914.70
2019-04-14T13:06:23.867Z,93904.89
2019-04-14T13:08:52.550Z,93910.91
2019-04-14T13:11:21.225Z,93907.81
2019-04-14T13:13:50.399Z,93906.84
2019-04-14T13:16:19.092Z,93910.63
2019-04-14T13:18:47.774Z,93903.80
2019-04-14T13:21:16.422Z,93904.11
2019-04-14T13:23:45.110Z,93899.14
2019-04-14T13:26:13.818Z,93907.05
2019-04-14T13:28:42.500Z,93900.44
2019-04-14T13:31:11.177Z,93901.08
2019-04-14T13:33:39.878Z,93902.71
2019-04-14T13:36:08.553Z,93889.00
2019-04-14T13:38:37.224Z,93900.17
2019-04-14T13:41:05.895Z,93908.14
2019-04-14T13:43:34.583Z,93896.58
2019-04-14T13:46:03.267Z,93900.80
2019-04-14T13:48:31.931Z,93896.47
2019-04-14T13:51:00.620Z,93905.83
2019-04-14T13:53:29.303Z,93907.08
2019-04-14T13:55:57.991Z,93907.28
2019-04-14T13:58:26.677Z,93900.33
2019-04-14T14:00:55.343Z,93904.16
2019-04-14T14:03:24.019Z,93909.53
2019-04-14T14:05:52.699Z,93918.30
2019-04-14T14:08:21.368Z,93917.94
2019-04-14T14:10:51.734Z,93925.63
2019-04-14T14:13:38.342Z,93925.04
2019-04-14T14:19:09.093Z,93926.13
2019-04-14T14:21:39.398Z,93919.13
2019-04-14T14:24:18.525Z,93923.80
2019-04-14T14:26:48.834Z,93925.77
2019-04-14T14:29:17.501Z,93923.35
2019-04-14T14:31:46.268Z,93926.15
2019-04-14T14:34:14.955Z,93924.53
2019-04-14T14:36:43.644Z,93929.61
2019-04-14T14:39:13.904Z,93932.93
2019-04-14T14:41:42.596Z,93930.16
2019-04-14T14:44:11.345Z,93933.33
2019-04-14T14:46:53.527Z,93936.83
2019-04-14T14:49:29.688Z,93914.10
2019-04-14T14:52:05.833Z,93931.67
2019-04-14T14:54:34.524Z,93936.13
2019-04-14T14:57:03.208Z,93942.84
2019-04-14T14:59:33.338Z,93942.62
2019-04-14T15:02:02.048Z,93940.56
2019-04-14T15:04:30.719Z,93944.30
2019-04-14T15:06:59.407Z,93946.44
2019-04-14T15:09:28.082Z,93951.11
2019-04-14T15:11:56.772Z,93953.16
2019-04-14T15:14:25.483Z,93955.56
2019-04-14T15:16:54.610Z,93960.20
2019-04-14T15:19:24.037Z,93968.15
2019-04-14T15:21:52.807Z,93962.53
2019-04-14T15:24:21.494Z,93964.55
2019-04-14T15:26:50.168Z,93967.78
2019-04-14T15:29:18.843Z,93965.86
2019-04-14T15:31:47.559Z,93967.48
2019-04-14T15:34:16.247Z,93976.63
2019-04-14T15:36:45.136Z,93969.84
2019-04-14T15:39:13.844Z,93976.27
2019-04-14T15:41:42.811Z,93976.33
2019-04-14T15:44:11.547Z,93972.75
2019-04-14T15:46:40.281Z,93973.04
2019-04-14T15:49:09.085Z,93973.86
2019-04-14T15:51:37.832Z,93977.72
2019-04-14T15:54:06.681Z,93974.70
2019-04-14T15:56:40.387Z,93984.76
2019-04-14T15:59:22.555Z,93981.13
2019-04-14T16:01:55.891Z,93988.17
2019-04-14T16:04:26.123Z,93985.43
2019-04-14T16:06:56.383Z,93992.77
2019-04-14T16:09:26.626Z,93994.31
2019-04-14T16:12:13.137Z,93989.42
2019-04-14T16:14:46.460Z,93990.23
2019-04-14T16:17:34.224Z,93998.33
2019-04-14T16:20:07.578Z,93995.41
2019-04-14T16:22:38.985Z,94000.81
2019-04-14T16:25:07.448Z,94010.55
2019-04-14T16:27:53.955Z,94000.42
2019-04-14T16:30:36.463Z,93980.75
2019-04-14T16:33:06.976Z,93999.68
2019-04-14T16:35:38.347Z,94000.65
2019-04-14T16:38:07.332Z,94004.89
2019-04-14T16:40:36.738Z,94008.31
2019-04-14T16:43:05.605Z,94015.27
2019-04-14T16:45:35.577Z,94018.72
2019-04-14T16:48:04.585Z,94019.71
2019-04-14T16:50:33.468Z,94026.31
2019-04-14T16:53:09.807Z,94033.52
2019-04-14T16:55:40.292Z,94034.43
2019-04-14T16:58:22.810Z,94035.06
2019-04-14T17:01:05.875Z,94035.53
2019-04-14T17:03:34.684Z,94037.84
2019-04-14T17:06:03.372Z,94031.02
2019-04-14T17:08:32.035Z,94030.42
2019-04-14T17:11:00.729Z,94039.33
2019-04-14T17:13:31.004Z,94041.80
2019-04-14T17:16:17.758Z,94047.76
2019-04-14T17:19:03.263Z,94046.90
2019-04-14T17:21:45.353Z,94050.48
2019-04-14T17:24:17.325Z,94049.03
2019-04-14T17:26:58.372Z,94056.69
2019-04-14T17:29:34.532Z,94067.81
2019-04-14T17:32:14.029Z,94065.88
2019-04-14T17:34:44.257Z,94071.68
2019-04-14T17:37:14.511Z,94073.16
2019-04-14T17:39:50.571Z,94075.12
2019-04-14T17:42:26.916Z,94076.27
2019-04-14T17:45:00.008Z,94078.14
2019-04-14T17:47:39.514Z,94078.70
2019-04-14T17:50:17.968Z,94078.20
2019-04-14T17:52:48.241Z,94084.76
2019-04-14T17:55:21.765Z,94091.66
2019-04-14T17:57:58.221Z,94090.55
2019-04-14T18:00:35.629Z,94093.41
2019-04-14T18:03:12.173Z,94097.39
2019-04-14T18:05:48.326Z,94097.45
2019-04-14T18:08:30.862Z,94096.98
2019-04-14T18:11:10.011Z,94099.07
2019-04-14T18:13:40.294Z,94103.55
2019-04-14T18:16:16.510Z,94104.53
2019-04-14T18:18:46.790Z,94105.16
2019-04-14T18:21:16.158Z,94105.77
2019-04-14T18:23:44.847Z,94111.69
2019-04-14T18:26:13.538Z,94107.38
2019-04-14T18:28:43.756Z,94108.25
2019-04-14T18:31:14.029Z,94106.26
2019-04-14T18:33:55.821Z,94113.30
2019-04-14T18:36:42.898Z,94119.50
2019-04-14T18:39:13.614Z,94113.80
2019-04-14T18:42:00.049Z,94113.55
2019-04-14T18:44:36.294Z,94113.82
2019-04-14T18:47:06.613Z,94122.70
2019-04-14T18:49:37.317Z,94116.66
2019-04-14T18:52:13.386Z,94115.42
2019-04-14T18:54:54.838Z,94119.51
2019-04-14T18:57:28.531Z,94119.98
2019-04-14T18:59:59.131Z,94125.92
2019-04-14T19:02:27.890Z,94122.45
2019-04-14T19:04:56.656Z,94128.40
2019-04-14T19:07:25.526Z,94130.27
2019-04-14T19:09:54.578Z,94129.52
2019-04-14T19:12:25.028Z,94132.34
2019-04-14T19:14:55.352Z,94131.50
2019-04-14T19:17:27.731Z,94134.58
2019-04-14T19:20:02.146Z,94140.87
2019-04-14T19:22:28.853Z,94140.03
2019-04-14T19:25:07.431Z,94138.16
2019-04-14T19:27:28.007Z,94140.37
2019-04-14T19:29:56.709Z,94144.95
2019-04-14T19:32:25.450Z,94141.87
2019-04-14T19:34:54.208Z,94143.98
2019-04-14T19:37:22.933Z,94145.22
2019-04-14T19:39:51.733Z,94149.55
2019-04-14T19:42:20.439Z,94144.36
2019-04-14T19:44:49.126Z,94154.59
2019-04-14T19:47:17.864Z,94142.36
2019-04-14T19:49:46.584Z,94146.31
2019-04-14T19:52:15.289Z,94144.59
2019-04-14T19:54:44.021Z,94146.70
2019-04-14T19:57:12.950Z,94144.20
2019-04-14T19:59:41.684Z,94144.84
2019-04-14T20:02:10.522Z,94139.27
2019-04-14T20:04:39.396Z,94149.53
2019-04-14T20:07:08.376Z,94129.61
2019-04-14T20:09:37.221Z,94152.89
2019-04-14T20:12:06.445Z,94146.69
2019-04-14T20:14:35.334Z,94151.53
2019-04-14T20:17:11.704Z,94154.59
2019-04-14T20:19:41.940Z,94163.14
2019-04-14T20:22:12.185Z,94160.55
2019-04-14T20:24:42.448Z,94153.74
2019-04-14T20:27:24.386Z,94157.30
2019-04-14T20:29:54.705Z,94160.39
2019-04-14T20:32:24.958Z,94154.09
2019-04-14T20:34:53.686Z,94154.52
2019-04-14T20:37:22.364Z,94156.02
2019-04-14T20:39:51.030Z,94157.30
2019-04-14T20:42:19.814Z,94159.42
2019-04-14T20:44:48.475Z,94160.54
2019-04-14T20:47:17.399Z,94159.18
2019-04-14T20:49:46.215Z,94155.83
2019-04-14T20:52:15.048Z,94160.43
2019-04-14T20:54:44.218Z,94159.91
2019-04-14T20:57:13.010Z,94148.64
2019-04-14T20:59:41.749Z,94171.65
2019-04-14T21:02:12.247Z,94167.68
2019-04-14T21:04:54.481Z,94167.08
2019-04-14T21:07:40.212Z,94168.06
2019-04-14T21:10:26.227Z,94172.41
2019-04-14T21:12:59.523Z,94166.48
2019-04-14T21:15:32.864Z,94171.39
2019-04-14T21:18:03.275Z,94163.27
2019-04-14T21:20:49.849Z,94166.09
2019-04-14T21:23:20.202Z,94172.25
2019-04-14T21:26:01.300Z,94164.59
2019-04-14T21:28:31.916Z,94174.20
2019-04-14T21:34:01.544Z,94171.05
2019-04-14T21:36:48.032Z,94175.43
2019-04-14T21:39:20.983Z,94179.58
2019-04-14T21:41:53.487Z,94183.72
2019-04-14T21:44:22.144Z,94186.14
2019-04-14T21:46:50.815Z,94179.77
2019-04-14T21:49:19.487Z,94186.13
2019-04-14T21:51:49.743Z,94184.92
2019-04-14T21:54:18.520Z,94178.51
2019-04-14T21:56:48.738Z,94177.93
2019-04-14T21:59:18.987Z,94180.41
2019-04-14T22:02:04.224Z,94177.71
2019-04-14T22:04:34.463Z,94184.83
2019-04-14T22:07:04.698Z,94181.85
2019-04-14T22:09:35.025Z,94181.41
2019-04-14T22:12:05.340Z,94185.84
2019-04-14T22:14:34.077Z,94187.66
2019-04-14T22:17:02.780Z,94188.70
2019-04-14T22:19:31.511Z,94181.06
2019-04-14T22:22:00.188Z,94179.29
2019-04-14T22:24:28.875Z,94180.80
2019-04-14T22:26:57.564Z,94174.70
2019-04-14T22:29:26.241Z,94175.98
2019-04-14T22:31:54.914Z,94174.00
2019-04-14T22:34:23.566Z,94173.68
2019-04-14T22:36:52.264Z,94175.17
2019-04-14T22:39:21.052Z,94176.55
2019-04-14T22:41:49.768Z,94175.09
2019-04-14T22:44:18.474Z,94174.55
2019-04-14T22:46:47.243Z,94170.62
2019-04-14T22:49:15.960Z,94174.92
2019-04-14T22:51:44.664Z,94165.17
2019-04-14T22:54:13.414Z,94164.05
2019-04-14T22:56:42.172Z,94161.10
2019-04-14T22:59:10.992Z,94157.75
2019-04-14T23:01:41.274Z,94160.27
2019-04-14T23:04:11.559Z,94156.78
2019-04-14T23:06:58.187Z,94160.55
2019-04-14T23:09:28.482Z,94171.08
2019-04-14T23:12:01.831Z,94165.34
2019-04-14T23:14:35.324Z,94162.40
2019-04-14T23:17:21.627Z,94161.41
2019-04-14T23:20:06.855Z,94158.97
2019-04-14T23:22:46.225Z,94169.98
2019-04-14T23:25:14.897Z,94171.97
2019-04-14T23:27:43.593Z,94169.98
2019-04-14T23:30:12.635Z,94171.59
2019-04-14T23:32:41.330Z,94172.83
2019-04-14T23:35:10.181Z,94173.20
2019-04-14T23:37:38.869Z,94171.73
2019-04-14T23:40:08.146Z,94175.54
2019-04-14T23:42:36.821Z,94172.10
2019-04-14T23:45:07.459Z,94165.80
2019-04-14T23:47:36.130Z,94165.75
2019-04-14T23:50:07.312Z,94165.26
2019-04-14T23:52:35.987Z,94165.17
2019-04-14T23:55:06.592Z,94160.20
2019-04-14T23:57:35.647Z,94156.74
